Time,TemperatureF,DewpointF,PressureIn,WindDirection,WindDirectionDegrees,WindSpeedMPH,WindSpeedGustMPH,Humidity,HourlyPrecipIn,Conditions,Clouds,dailyrainin,SoftwareType,DateUTC
2013-03-22 00:00:00,26.6,13.4,30.08,West,266,0.0,13.0,57,0.00,,,0.00,Wunderground v.1.15,2013-03-22 04:00:00,
2013-03-22 00:02:00,26.3,13.1,30.08,West,266,0.0,13.0,57,0.00,,,0.00,Wunderground v.1.15,2013-03-22 04:02:00,
2013-03-22 00:05:00,26.0,13.2,30.09,West,266,0.0,13.0,58,0.00,,,0.00,Wunderground v.1.15,2013-03-22 04:05:00,
2013-03-22 00:10:00,25.6,13.6,30.09,West,266,0.0,13.0,60,0.00,,,0.00,Wunderground v.1.15,2013-03-22 04:10:00,
2013-03-22 00:16:00,25.3,14.1,30.09,West,266,0.0,13.0,62,0.00,,,0.00,Wunderground v.1.15,2013-03-22 04:16:00,
2013-03-22 00:22:00,25.2,14.0,30.09,West,266,0.0,13.0,62,0.00,,,0.00,Wunderground v.1.15,2013-03-22 04:22:00,
2013-03-22 00:28:00,24.9,15.1,30.09,West,266,0.0,13.0,66,0.00,,,0.00,Wunderground v.1.15,2013-03-22 04:28:00,
2013-03-22 00:34:00,24.6,16.9,30.09,West,266,0.0,13.0,72,0.00,,,0.00,Wunderground v.1.15,2013-03-22 04:34:00,
2013-03-22 00:40:00,24.2,16.8,30.08,WSW,237,0.0,13.0,73,0.00,,,0.00,Wunderground v.1.15,2013-03-22 04:40:00,
2013-03-22 00:47:00,24.0,16.9,30.08,WSW,237,0.0,13.0,74,0.00,,,0.00,Wunderground v.1.15,2013-03-22 04:47:00,
2013-03-22 00:53:00,24.0,16.9,30.08,SSW,194,1.0,13.0,74,0.00,,,0.00,Wunderground v.1.15,2013-03-22 04:53:00,
2013-03-22 00:59:00,24.2,16.8,30.08,South,188,1.0,13.0,73,0.00,,,0.00,Wunderground v.1.15,2013-03-22 04:59:00,
2013-03-22 01:05:00,24.4,16.7,30.08,South,179,1.0,13.0,72,0.00,,,0.00,Wunderground v.1.15,2013-03-22 05:05:00,
2013-03-22 01:10:00,24.3,16.6,30.08,South,176,2.0,13.0,72,0.00,,,0.00,Wunderground v.1.15,2013-03-22 05:10:00,
2013-03-22 01:16:00,24.1,16.4,30.08,South,173,2.0,13.0,72,0.00,,,0.00,Wunderground v.1.15,2013-03-22 05:16:00,
2013-03-22 01:22:00,24.2,16.1,30.08,South,173,2.0,13.0,71,0.00,,,0.00,Wunderground v.1.15,2013-03-22 05:22:00,
2013-03-22 01:27:00,24.2,16.1,30.08,South,173,1.0,13.0,71,0.00,,,0.00,Wunderground v.1.15,2013-03-22 05:27:00,
2013-03-22 01:33:00,23.9,15.9,30.08,South,173,1.0,13.0,71,0.00,,,0.00,Wunderground v.1.15,2013-03-22 05:33:00,
2013-03-22 01:38:00,23.7,15.7,30.08,South,173,1.0,13.0,71,0.00,,,0.00,Wunderground v.1.15,2013-03-22 05:38:00,
2013-03-22 01:43:00,23.8,15.4,30.08,South,173,2.0,13.0,70,0.00,,,0.00,Wunderground v.1.15,2013-03-22 05:43:00,
2013-03-22 01:49:00,23.8,15.4,30.08,South,173,2.0,13.0,70,0.00,,,0.00,Wunderground v.1.15,2013-03-22 05:49:00,
2013-03-22 01:55:00,24.0,15.0,30.08,South,173,1.0,13.0,68,0.00,,,0.00,Wunderground v.1.15,2013-03-22 05:55:00,
2013-03-22 02:01:00,24.0,15.3,30.07,South,173,1.0,13.0,69,0.00,,,0.00,Wunderground v.1.15,2013-03-22 06:01:00,
2013-03-22 02:07:00,23.9,14.9,30.08,South,173,0.0,13.0,68,0.00,,,0.00,Wunderground v.1.15,2013-03-22 06:07:00,
2013-03-22 02:13:00,23.6,16.2,30.07,South,173,0.0,13.0,73,0.00,,,0.00,Wunderground v.1.15,2013-03-22 06:13:00,
2013-03-22 02:18:00,23.1,15.7,30.07,South,173,0.0,13.0,73,0.00,,,0.00,Wunderground v.1.15,2013-03-22 06:18:00,
2013-03-22 02:24:00,23.0,15.3,30.07,South,181,1.0,13.0,72,0.00,,,0.00,Wunderground v.1.15,2013-03-22 06:24:00,
2013-03-22 02:30:00,22.9,15.2,30.07,South,181,0.0,13.0,72,0.00,,,0.00,Wunderground v.1.15,2013-03-22 06:30:00,
2013-03-22 02:36:00,22.7,15.0,30.07,South,181,0.0,13.0,72,0.00,,,0.00,Wunderground v.1.15,2013-03-22 06:36:00,
2013-03-22 02:42:00,22.2,14.9,30.07,South,181,0.0,13.0,73,0.00,,,0.00,Wunderground v.1.15,2013-03-22 06:42:00,
2013-03-22 02:47:00,21.5,14.2,30.07,South,181,0.0,13.0,73,0.00,,,0.00,Wunderground v.1.15,2013-03-22 06:47:00,
2013-03-22 02:52:00,21.2,14.5,30.07,South,181,0.0,13.0,75,0.00,,,0.00,Wunderground v.1.15,2013-03-22 06:52:00,
2013-03-22 02:58:00,21.1,15.3,30.08,South,181,0.0,13.0,78,0.00,,,0.00,Wunderground v.1.15,2013-03-22 06:58:00,
2013-03-22 03:04:00,20.9,15.1,30.08,South,181,0.0,13.0,78,0.00,,,0.00,Wunderground v.1.15,2013-03-22 07:04:00,
2013-03-22 03:10:00,20.8,15.0,30.08,South,181,0.0,13.0,78,0.00,,,0.00,Wunderground v.1.15,2013-03-22 07:10:00,
2013-03-22 03:16:00,20.9,15.1,30.08,South,181,0.0,13.0,78,0.00,,,0.00,Wunderground v.1.15,2013-03-22 07:16:00,
2013-03-22 03:22:00,20.8,15.0,30.08,South,181,0.0,13.0,78,0.00,,,0.00,Wunderground v.1.15,2013-03-22 07:22:00,
2013-03-22 03:28:00,20.7,15.2,30.08,South,181,1.0,13.0,79,0.00,,,0.00,Wunderground v.1.15,2013-03-22 07:28:00,
2013-03-22 03:34:00,20.7,15.2,30.08,South,181,1.0,13.0,79,0.00,,,0.00,Wunderground v.1.15,2013-03-22 07:34:00,
2013-03-22 03:40:00,20.6,14.8,30.08,South,181,0.0,13.0,78,0.00,,,0.00,Wunderground v.1.15,2013-03-22 07:40:00,
2013-03-22 03:47:00,20.3,15.7,30.08,South,181,0.0,13.0,82,0.00,,,0.00,Wunderground v.1.15,2013-03-22 07:47:00,
2013-03-22 03:53:00,20.3,15.7,30.08,South,176,1.0,13.0,82,0.00,,,0.00,Wunderground v.1.15,2013-03-22 07:53:00,
2013-03-22 03:59:00,20.0,15.4,30.08,South,172,2.0,13.0,82,0.00,,,0.00,Wunderground v.1.15,2013-03-22 07:59:00,
2013-03-22 04:04:00,19.8,15.2,30.08,South,172,2.0,13.0,82,0.00,,,0.00,Wunderground v.1.15,2013-03-22 08:04:00,
2013-03-22 04:10:00,19.6,15.0,30.08,South,172,2.0,2.0,82,0.00,,,0.00,Wunderground v.1.15,2013-03-22 08:10:00,
2013-03-22 04:17:00,19.7,15.4,30.08,South,172,2.0,13.0,83,0.00,,,0.00,Wunderground v.1.15,2013-03-22 08:17:00,
2013-03-22 04:23:00,20.1,15.5,30.08,South,172,1.0,13.0,82,0.00,,,0.00,Wunderground v.1.15,2013-03-22 08:23:00,
2013-03-22 04:29:00,20.0,15.4,30.08,South,172,0.0,13.0,82,0.00,,,0.00,Wunderground v.1.15,2013-03-22 08:29:00,
2013-03-22 04:35:00,19.8,15.5,30.08,South,172,1.0,13.0,83,0.00,,,0.00,Wunderground v.1.15,2013-03-22 08:35:00,
2013-03-22 04:41:00,19.7,15.4,30.08,South,172,1.0,13.0,83,0.00,,,0.00,Wunderground v.1.15,2013-03-22 08:41:00,
2013-03-22 04:47:00,19.5,15.5,30.08,South,172,1.0,13.0,84,0.00,,,0.00,Wunderground v.1.15,2013-03-22 08:47:00,
2013-03-22 04:53:00,19.3,15.5,30.08,South,172,1.0,13.0,85,0.00,,,0.00,Wunderground v.1.15,2013-03-22 08:53:00,
2013-03-22 04:59:00,19.1,15.6,30.08,South,172,1.0,13.0,86,0.00,,,0.00,Wunderground v.1.15,2013-03-22 08:59:00,
2013-03-22 05:05:00,18.9,15.4,30.08,South,172,0.0,13.0,86,0.00,,,0.00,Wunderground v.1.15,2013-03-22 09:05:00,
2013-03-22 05:10:00,18.8,15.3,30.08,South,172,0.0,13.0,86,0.00,,,0.00,Wunderground v.1.15,2013-03-22 09:10:00,
2013-03-22 05:16:00,18.7,15.5,30.08,South,172,0.0,13.0,87,0.00,,,0.00,Wunderground v.1.15,2013-03-22 09:16:00,
2013-03-22 05:21:00,18.9,15.7,30.08,South,172,0.0,13.0,87,0.00,,,0.00,Wunderground v.1.15,2013-03-22 09:21:00,
2013-03-22 05:27:00,19.2,15.7,30.08,South,172,0.0,13.0,86,0.00,,,0.00,Wunderground v.1.15,2013-03-22 09:27:00,
2013-03-22 05:32:00,19.1,15.3,30.08,South,172,0.0,13.0,85,0.00,,,0.00,Wunderground v.1.15,2013-03-22 09:32:00,
2013-03-22 05:37:00,19.0,15.5,30.08,South,172,0.0,13.0,86,0.00,,,0.00,Wunderground v.1.15,2013-03-22 09:37:00,
2013-03-22 05:43:00,18.8,15.3,30.08,South,172,0.0,13.0,86,0.00,,,0.00,Wunderground v.1.15,2013-03-22 09:43:00,
2013-03-22 05:48:00,18.6,15.4,30.08,South,172,0.0,13.0,87,0.00,,,0.00,Wunderground v.1.15,2013-03-22 09:48:00,
2013-03-22 05:54:00,18.5,15.5,30.08,South,172,1.0,13.0,88,0.00,,,0.00,Wunderground v.1.15,2013-03-22 09:54:00,
2013-03-22 06:00:00,18.3,15.3,30.09,South,172,1.0,13.0,88,0.00,,,0.00,Wunderground v.1.15,2013-03-22 10:00:00,
2013-03-22 06:05:00,18.3,15.3,30.09,South,172,1.0,13.0,88,0.00,,,0.00,Wunderground v.1.15,2013-03-22 10:05:00,
2013-03-22 06:12:00,18.2,15.2,30.09,South,172,1.0,1.0,88,0.00,,,0.00,Wunderground v.1.15,2013-03-22 10:12:00,
2013-03-22 06:18:00,18.0,15.0,30.09,South,172,1.0,1.0,88,0.00,,,0.00,Wunderground v.1.15,2013-03-22 10:18:00,
2013-03-22 06:24:00,18.1,15.4,30.09,South,172,1.0,2.0,89,0.00,,,0.00,Wunderground v.1.15,2013-03-22 10:24:00,
2013-03-22 06:29:00,18.1,15.4,30.09,South,172,2.0,2.0,89,0.00,,,0.00,Wunderground v.1.15,2013-03-22 10:29:00,
2013-03-22 06:34:00,17.9,15.2,30.09,South,172,2.0,2.0,89,0.00,,,0.00,Wunderground v.1.15,2013-03-22 10:34:00,
2013-03-22 06:39:00,17.7,15.0,30.09,South,172,1.0,2.0,89,0.00,,,0.00,Wunderground v.1.15,2013-03-22 10:39:00,
2013-03-22 06:44:00,17.6,14.9,30.09,South,172,1.0,2.0,89,0.00,,,0.00,Wunderground v.1.15,2013-03-22 10:44:00,
2013-03-22 06:50:00,17.7,15.3,30.09,South,172,2.0,2.0,90,0.00,,,0.00,Wunderground v.1.15,2013-03-22 10:50:00,
2013-03-22 06:56:00,17.9,15.5,30.09,South,172,2.0,2.0,90,0.00,,,0.00,Wunderground v.1.15,2013-03-22 10:56:00,
2013-03-22 07:02:00,17.9,15.2,30.09,South,172,1.0,2.0,89,0.00,,,0.00,Wunderground v.1.15,2013-03-22 11:02:00,
2013-03-22 07:07:00,17.7,15.0,30.09,South,172,0.0,2.0,89,0.00,,,0.00,Wunderground v.1.15,2013-03-22 11:07:00,
2013-03-22 07:12:00,17.6,14.9,30.09,South,172,0.0,2.0,89,0.00,,,0.00,Wunderground v.1.15,2013-03-22 11:12:00,
2013-03-22 07:18:00,17.5,14.8,30.09,South,172,0.0,2.0,89,0.00,,,0.00,Wunderground v.1.15,2013-03-22 11:18:00,
2013-03-22 07:24:00,17.3,14.9,30.10,South,172,0.0,2.0,90,0.00,,,0.00,Wunderground v.1.15,2013-03-22 11:24:00,
2013-03-22 07:30:00,17.2,14.5,30.10,South,172,0.0,2.0,89,0.00,,,0.00,Wunderground v.1.15,2013-03-22 11:30:00,
2013-03-22 07:35:00,17.1,14.7,30.10,South,172,0.0,2.0,90,0.00,,,0.00,Wunderground v.1.15,2013-03-22 11:35:00,
2013-03-22 07:41:00,17.5,15.3,30.11,South,172,1.0,2.0,91,0.00,,,0.00,Wunderground v.1.15,2013-03-22 11:41:00,
2013-03-22 07:46:00,17.7,15.5,30.11,South,172,0.0,2.0,91,0.00,,,0.00,Wunderground v.1.15,2013-03-22 11:46:00,
2013-03-22 07:52:00,17.5,15.1,30.11,South,172,0.0,2.0,90,0.00,,,0.00,Wunderground v.1.15,2013-03-22 11:52:00,
2013-03-22 07:58:00,17.4,15.0,30.11,South,172,0.0,2.0,90,0.00,,,0.00,Wunderground v.1.15,2013-03-22 11:58:00,
2013-03-22 08:04:00,17.3,14.9,30.11,South,172,1.0,2.0,90,0.00,,,0.00,Wunderground v.1.15,2013-03-22 12:04:00,
2013-03-22 08:10:00,17.3,14.6,30.11,South,172,0.0,2.0,89,0.00,,,0.00,Wunderground v.1.15,2013-03-22 12:10:00,
2013-03-22 08:16:00,17.4,15.0,30.11,South,172,0.0,2.0,90,0.00,,,0.00,Wunderground v.1.15,2013-03-22 12:16:00,
2013-03-22 08:22:00,17.6,15.2,30.11,South,172,0.0,2.0,90,0.00,,,0.00,Wunderground v.1.15,2013-03-22 12:22:00,
2013-03-22 08:28:00,18.1,15.7,30.11,South,172,0.0,2.0,90,0.00,,,0.00,Wunderground v.1.15,2013-03-22 12:28:00,
2013-03-22 08:34:00,18.9,16.7,30.11,South,172,1.0,3.0,91,0.00,,,0.00,Wunderground v.1.15,2013-03-22 12:34:00,
2013-03-22 08:40:00,19.7,17.2,30.11,South,172,1.0,1.0,90,0.00,,,0.00,Wunderground v.1.15,2013-03-22 12:40:00,
2013-03-22 08:45:00,20.5,18.0,30.11,South,172,1.0,2.0,90,0.00,,,0.00,Wunderground v.1.15,2013-03-22 12:45:00,
2013-03-22 08:51:00,20.9,17.9,30.11,SSE,156,2.0,2.0,88,0.00,,,0.00,Wunderground v.1.15,2013-03-22 12:51:00,
2013-03-22 08:56:00,21.5,18.5,30.11,SSE,155,2.0,2.0,88,0.00,,,0.00,Wunderground v.1.15,2013-03-22 12:56:00,
2013-03-22 09:02:00,22.0,18.7,30.12,SSE,155,2.0,3.0,87,0.00,,,0.00,Wunderground v.1.15,2013-03-22 13:02:00,
2013-03-22 09:07:00,22.6,19.3,30.11,SSE,154,2.0,3.0,87,0.00,,,0.00,Wunderground v.1.15,2013-03-22 13:07:00,
2013-03-22 09:13:00,23.6,20.0,30.11,SSE,154,2.0,2.0,86,0.00,,,0.00,Wunderground v.1.15,2013-03-22 13:13:00,
2013-03-22 09:19:00,24.4,20.0,30.11,SSE,154,2.0,2.0,83,0.00,,,0.00,Wunderground v.1.15,2013-03-22 13:19:00,
2013-03-22 09:24:00,25.1,20.7,30.11,SSE,154,2.0,3.0,83,0.00,,,0.00,Wunderground v.1.15,2013-03-22 13:24:00,
2013-03-22 09:30:00,25.7,20.4,30.12,SSE,154,2.0,2.0,80,0.00,,,0.00,Wunderground v.1.15,2013-03-22 13:30:00,
2013-03-22 09:35:00,26.1,20.5,30.12,SSE,154,2.0,3.0,79,0.00,,,0.00,Wunderground v.1.15,2013-03-22 13:35:00,
2013-03-22 09:41:00,26.6,20.7,30.12,SSE,154,2.0,2.0,78,0.00,,,0.00,Wunderground v.1.15,2013-03-22 13:41:00,
2013-03-22 09:47:00,27.6,20.4,30.12,SSE,154,1.0,2.0,74,0.00,,,0.00,Wunderground v.1.15,2013-03-22 13:47:00,
2013-03-22 09:53:00,28.6,21.0,30.12,South,183,1.0,2.0,73,0.00,,,0.00,Wunderground v.1.15,2013-03-22 13:53:00,
2013-03-22 09:59:00,29.3,20.7,30.12,SSE,161,1.0,2.0,70,0.00,,,0.00,Wunderground v.1.15,2013-03-22 13:59:00,
2013-03-22 10:05:00,30.0,20.7,30.12,East,91,2.0,2.0,68,0.00,,,0.00,Wunderground v.1.15,2013-03-22 14:05:00,
2013-03-22 10:11:00,30.9,20.5,30.12,ESE,121,2.0,2.0,65,0.00,,,0.00,Wunderground v.1.15,2013-03-22 14:11:00,
2013-03-22 10:17:00,31.6,20.4,30.12,SE,133,2.0,4.0,63,0.00,,,0.00,Wunderground v.1.15,2013-03-22 14:17:00,
2013-03-22 10:23:00,32.3,20.3,30.12,ESE,115,2.0,3.0,61,0.00,,,0.00,Wunderground v.1.15,2013-03-22 14:23:00,
2013-03-22 10:29:00,32.5,19.7,30.12,ENE,67,2.0,3.0,59,0.00,,,0.00,Wunderground v.1.15,2013-03-22 14:29:00,
2013-03-22 10:34:00,32.9,20.5,30.12,East,87,2.0,2.0,60,0.00,,,0.00,Wunderground v.1.15,2013-03-22 14:34:00,
2013-03-22 10:40:00,33.8,19.7,30.12,NNE,28,2.0,2.0,56,0.00,,,0.00,Wunderground v.1.15,2013-03-22 14:40:00,
2013-03-22 10:45:00,34.4,17.7,30.12,SE,145,2.0,4.0,50,0.00,,,0.00,Wunderground v.1.15,2013-03-22 14:45:00,
2013-03-22 10:51:00,34.7,17.0,30.11,ESE,122,2.0,3.0,48,0.00,,,0.00,Wunderground v.1.15,2013-03-22 14:51:00,
2013-03-22 10:56:00,35.2,17.9,30.12,South,170,2.0,3.0,49,0.00,,,0.00,Wunderground v.1.15,2013-03-22 14:56:00,
2013-03-22 11:01:00,35.4,17.1,30.12,SSE,160,2.0,3.0,47,0.00,,,0.00,Wunderground v.1.15,2013-03-22 15:01:00,
2013-03-22 11:06:00,35.5,17.7,30.12,ESE,118,2.0,3.0,48,0.00,,,0.00,Wunderground v.1.15,2013-03-22 15:06:00,
2013-03-22 11:12:00,36.4,18.6,30.12,East,81,2.0,5.0,48,0.00,,,0.00,Wunderground v.1.15,2013-03-22 15:12:00,
2013-03-22 11:17:00,36.4,18.6,30.11,ESE,102,2.0,7.0,48,0.00,,,0.00,Wunderground v.1.15,2013-03-22 15:17:00,
2013-03-22 11:23:00,36.4,18.1,30.11,SSE,149,3.0,6.0,47,0.00,,,0.00,Wunderground v.1.15,2013-03-22 15:23:00,
2013-03-22 11:28:00,36.3,14.8,30.11,South,170,3.0,6.0,41,0.00,,,0.00,Wunderground v.1.15,2013-03-22 15:28:00,
2013-03-22 11:34:00,35.2,15.4,30.11,SSW,211,3.0,4.0,44,0.00,,,0.00,Wunderground v.1.15,2013-03-22 15:34:00,
2013-03-22 11:40:00,34.9,15.2,30.11,WNW,285,3.0,3.0,44,0.00,,,0.00,Wunderground v.1.15,2013-03-22 15:40:00,
2013-03-22 11:47:00,34.7,16.0,30.11,SE,143,2.0,5.0,46,0.00,,,0.00,Wunderground v.1.15,2013-03-22 15:47:00,
2013-03-22 11:53:00,35.6,16.8,30.11,SE,141,3.0,5.0,46,0.00,,,0.00,Wunderground v.1.15,2013-03-22 15:53:00,
2013-03-22 11:59:00,37.4,17.4,30.11,SE,145,2.0,5.0,44,0.00,,,0.00,Wunderground v.1.15,2013-03-22 15:59:00,
2013-03-22 12:04:00,38.2,17.1,30.11,SSW,192,3.0,6.0,42,0.00,,,0.00,Wunderground v.1.15,2013-03-22 16:04:00,
2013-03-22 12:09:00,37.7,16.1,30.11,SE,135,4.0,6.0,41,0.00,,,0.00,Wunderground v.1.15,2013-03-22 16:09:00,
2013-03-22 12:15:00,38.2,17.6,30.10,SE,127,3.0,4.0,43,0.00,,,0.00,Wunderground v.1.15,2013-03-22 16:15:00,
2013-03-22 12:21:00,38.8,16.5,30.10,NNE,16,2.0,3.0,40,0.00,,,0.00,Wunderground v.1.15,2013-03-22 16:21:00,
2013-03-22 12:27:00,38.1,17.0,30.10,NE,48,3.0,5.0,42,0.00,,,0.00,Wunderground v.1.15,2013-03-22 16:27:00,
2013-03-22 12:33:00,37.6,17.6,30.10,NNE,27,3.0,4.0,44,0.00,,,0.00,Wunderground v.1.15,2013-03-22 16:33:00,
2013-03-22 12:39:00,38.4,17.8,30.10,NE,50,3.0,4.0,43,0.00,,,0.00,Wunderground v.1.15,2013-03-22 16:39:00,
2013-03-22 12:44:00,38.2,16.5,30.10,West,273,3.0,3.0,41,0.00,,,0.00,Wunderground v.1.15,2013-03-22 16:44:00,
2013-03-22 12:49:00,37.9,16.8,30.10,South,179,2.0,5.0,42,0.00,,,0.00,Wunderground v.1.15,2013-03-22 16:49:00,
2013-03-22 12:55:00,38.7,19.2,30.10,ENE,57,2.0,3.0,45,0.00,,,0.00,Wunderground v.1.15,2013-03-22 16:55:00,
2013-03-22 13:02:00,40.6,18.7,30.10,SE,137,2.0,7.0,41,0.00,,,0.00,Wunderground v.1.15,2013-03-22 17:02:00,
2013-03-22 13:08:00,41.3,18.2,30.09,ESE,118,3.0,8.0,39,0.00,,,0.00,Wunderground v.1.15,2013-03-22 17:08:00,
2013-03-22 13:13:00,41.9,17.5,30.09,SE,146,3.0,3.0,37,0.00,,,0.00,Wunderground v.1.15,2013-03-22 17:13:00,
2013-03-22 13:19:00,42.2,18.4,30.09,East,83,2.0,4.0,38,0.00,,,0.00,Wunderground v.1.15,2013-03-22 17:19:00,
2013-03-22 13:25:00,43.0,19.7,30.08,West,276,2.0,5.0,39,0.00,,,0.00,Wunderground v.1.15,2013-03-22 17:25:00,
2013-03-22 13:30:00,43.0,19.1,30.08,West,268,2.0,2.0,38,0.00,,,0.00,Wunderground v.1.15,2013-03-22 17:30:00,
2013-03-22 13:35:00,42.2,18.4,30.08,SE,131,3.0,5.0,38,0.00,,,0.00,Wunderground v.1.15,2013-03-22 17:35:00,
2013-03-22 13:41:00,42.0,16.9,30.08,SSE,148,3.0,5.0,36,0.00,,,0.00,Wunderground v.1.15,2013-03-22 17:41:00,
2013-03-22 13:47:00,41.4,17.0,30.08,SSE,153,4.0,6.0,37,0.00,,,0.00,Wunderground v.1.15,2013-03-22 17:47:00,
2013-03-22 13:52:00,41.8,16.8,30.08,SE,141,3.0,4.0,36,0.00,,,0.00,Wunderground v.1.15,2013-03-22 17:52:00,
2013-03-22 13:58:00,42.1,18.9,30.08,NNE,32,2.0,5.0,39,0.00,,,0.00,Wunderground v.1.15,2013-03-22 17:58:00,
2013-03-22 14:03:00,42.7,18.8,30.08,West,281,2.0,3.0,38,0.00,,,0.00,Wunderground v.1.15,2013-03-22 18:03:00,
2013-03-22 14:09:00,41.6,17.2,30.08,WSW,239,3.0,5.0,37,0.00,,,0.00,Wunderground v.1.15,2013-03-22 18:09:00,
2013-03-22 14:15:00,41.7,18.5,30.07,SW,218,3.0,4.0,39,0.00,,,0.00,Wunderground v.1.15,2013-03-22 18:15:00,
2013-03-22 14:20:00,41.8,17.4,30.07,SSW,203,2.0,6.0,37,0.00,,,0.00,Wunderground v.1.15,2013-03-22 18:20:00,
2013-03-22 14:26:00,41.6,15.9,30.07,SSW,197,3.0,6.0,35,0.00,,,0.00,Wunderground v.1.15,2013-03-22 18:26:00,
2013-03-22 14:32:00,42.0,15.6,30.07,SSW,210,4.0,10.0,34,0.00,,,0.00,Wunderground v.1.15,2013-03-22 18:32:00,
2013-03-22 14:38:00,41.6,15.3,30.07,SSE,162,4.0,10.0,34,0.00,,,0.00,Wunderground v.1.15,2013-03-22 18:38:00,
2013-03-22 14:43:00,42.1,15.7,30.07,West,279,3.0,4.0,34,0.00,,,0.00,Wunderground v.1.15,2013-03-22 18:43:00,
2013-03-22 14:49:00,41.9,16.9,30.06,NW,318,3.0,6.0,36,0.00,,,0.00,Wunderground v.1.15,2013-03-22 18:49:00,
2013-03-22 14:55:00,41.9,14.8,30.05,North,10,4.0,8.0,33,0.00,,,0.00,Wunderground v.1.15,2013-03-22 18:55:00,
2013-03-22 15:02:00,42.6,17.5,30.05,South,184,4.0,7.0,36,0.00,,,0.00,Wunderground v.1.15,2013-03-22 19:02:00,
2013-03-22 15:08:00,43.2,16.7,30.05,SSW,212,4.0,7.0,34,0.00,,,0.00,Wunderground v.1.15,2013-03-22 19:08:00,
2013-03-22 15:14:00,43.0,15.1,30.05,West,272,3.0,6.0,32,0.00,,,0.00,Wunderground v.1.15,2013-03-22 19:14:00,
2013-03-22 15:20:00,43.1,15.9,30.04,North,4,2.0,2.0,33,0.00,,,0.00,Wunderground v.1.15,2013-03-22 19:20:00,
2013-03-22 15:27:00,43.6,15.6,30.04,WNW,290,1.0,2.0,32,0.00,,,0.00,Wunderground v.1.15,2013-03-22 19:27:00,
2013-03-22 15:33:00,45.4,19.3,30.04,SSE,159,1.0,2.0,35,0.00,,,0.00,Wunderground v.1.15,2013-03-22 19:33:00,
2013-03-22 15:39:00,46.1,18.6,30.03,SW,226,2.0,4.0,33,0.00,,,0.00,Wunderground v.1.15,2013-03-22 19:39:00,
2013-03-22 15:44:00,45.4,20.0,30.03,ESE,122,2.0,7.0,36,0.00,,,0.00,Wunderground v.1.15,2013-03-22 19:44:00,
2013-03-22 15:49:00,45.2,18.5,30.03,SE,142,3.0,7.0,34,0.00,,,0.00,Wunderground v.1.15,2013-03-22 19:49:00,
2013-03-22 15:55:00,44.4,16.3,30.03,SE,141,4.0,7.0,32,0.00,,,0.00,Wunderground v.1.15,2013-03-22 19:55:00,
2013-03-22 16:01:00,45.1,17.7,30.02,SSE,149,3.0,7.0,33,0.00,,,0.00,Wunderground v.1.15,2013-03-22 20:01:00,
2013-03-22 16:07:00,44.3,18.3,30.02,South,185,3.0,7.0,35,0.00,,,0.00,Wunderground v.1.15,2013-03-22 20:07:00,
2013-03-22 16:12:00,44.1,17.5,30.02,SSW,206,3.0,4.0,34,0.00,,,0.00,Wunderground v.1.15,2013-03-22 20:12:00,
2013-03-22 16:17:00,45.5,19.4,30.02,North,350,2.0,7.0,35,0.00,,,0.00,Wunderground v.1.15,2013-03-22 20:17:00,
2013-03-22 16:23:00,46.6,19.0,30.02,ESE,120,3.0,3.0,33,0.00,,,0.00,Wunderground v.1.15,2013-03-22 20:23:00,
2013-03-22 16:29:00,46.3,18.0,30.02,SW,220,3.0,3.0,32,0.00,,,0.00,Wunderground v.1.15,2013-03-22 20:29:00,
2013-03-22 16:35:00,45.2,17.0,30.02,South,189,3.0,4.0,32,0.00,,,0.00,Wunderground v.1.15,2013-03-22 20:35:00,
2013-03-22 16:41:00,44.8,16.7,30.02,WNW,295,4.0,8.0,32,0.00,,,0.00,Wunderground v.1.15,2013-03-22 20:41:00,
2013-03-22 16:47:00,44.6,17.2,30.02,SSW,197,3.0,8.0,33,0.00,,,0.00,Wunderground v.1.15,2013-03-22 20:47:00,
2013-03-22 16:53:00,44.1,17.5,30.02,North,349,4.0,6.0,34,0.00,,,0.00,Wunderground v.1.15,2013-03-22 20:53:00,
2013-03-22 16:59:00,44.5,18.5,30.01,NW,318,4.0,6.0,35,0.00,,,0.00,Wunderground v.1.15,2013-03-22 20:59:00,
2013-03-22 17:05:00,44.3,17.0,30.01,NNE,15,3.0,8.0,33,0.00,,,0.00,Wunderground v.1.15,2013-03-22 21:05:00,
2013-03-22 17:10:00,44.5,17.1,30.01,NNE,18,4.0,4.0,33,0.00,,,0.00,Wunderground v.1.15,2013-03-22 21:10:00,
2013-03-22 17:16:00,44.9,18.2,30.01,West,279,3.0,6.0,34,0.00,,,0.00,Wunderground v.1.15,2013-03-22 21:16:00,
2013-03-22 17:22:00,46.7,20.5,30.02,NE,49,2.0,3.0,35,0.00,,,0.00,Wunderground v.1.15,2013-03-22 21:22:00,
2013-03-22 17:28:00,48.1,18.8,30.02,NNW,331,1.0,3.0,31,0.00,,,0.00,Wunderground v.1.15,2013-03-22 21:28:00,
2013-03-22 17:34:00,46.6,17.5,30.02,NW,305,2.0,4.0,31,0.00,,,0.00,Wunderground v.1.15,2013-03-22 21:34:00,
2013-03-22 17:40:00,46.5,18.2,30.02,NW,310,2.0,3.0,32,0.00,,,0.00,Wunderground v.1.15,2013-03-22 21:40:00,
2013-03-22 17:45:00,45.7,17.5,30.02,WNW,288,3.0,5.0,32,0.00,,,0.00,Wunderground v.1.15,2013-03-22 21:45:00,
2013-03-22 17:52:00,45.3,17.8,30.02,NNW,343,4.0,4.0,33,0.00,,,0.00,Wunderground v.1.15,2013-03-22 21:52:00,
2013-03-22 17:57:00,45.5,18.0,30.02,NE,41,3.0,4.0,33,0.00,,,0.00,Wunderground v.1.15,2013-03-22 21:57:00,
2013-03-22 18:02:00,46.9,19.3,30.02,NNE,22,2.0,3.0,33,0.00,,,0.00,Wunderground v.1.15,2013-03-22 22:02:00,
2013-03-22 18:08:00,47.6,17.6,30.02,NNE,33,2.0,3.0,30,0.00,,,0.00,Wunderground v.1.15,2013-03-22 22:08:00,
2013-03-22 18:14:00,49.8,20.3,30.01,NNE,33,1.0,2.0,31,0.00,,,0.00,Wunderground v.1.15,2013-03-22 22:14:00,
2013-03-22 18:20:00,50.8,18.8,30.02,NNW,346,1.0,1.0,28,0.00,,,0.00,Wunderground v.1.15,2013-03-22 22:20:00,
2013-03-22 18:26:00,49.9,18.0,30.02,SSE,154,1.0,3.0,28,0.00,,,0.00,Wunderground v.1.15,2013-03-22 22:26:00,
2013-03-22 18:32:00,48.3,16.7,30.02,SSW,209,2.0,3.0,28,0.00,,,0.00,Wunderground v.1.15,2013-03-22 22:32:00,
2013-03-22 18:37:00,47.0,17.1,30.02,WSW,243,2.0,3.0,30,0.00,,,0.00,Wunderground v.1.15,2013-03-22 22:37:00,
2013-03-22 18:43:00,45.5,18.0,30.03,SW,222,2.0,3.0,33,0.00,,,0.00,Wunderground v.1.15,2013-03-22 22:43:00,
2013-03-22 18:49:00,44.7,18.0,30.03,SW,215,2.0,4.0,34,0.00,,,0.00,Wunderground v.1.15,2013-03-22 22:49:00,
2013-03-22 18:54:00,44.3,17.7,30.03,South,174,2.0,3.0,34,0.00,,,0.00,Wunderground v.1.15,2013-03-22 22:54:00,
2013-03-22 19:00:00,44.2,17.6,30.03,SSW,197,2.0,3.0,34,0.00,,,0.00,Wunderground v.1.15,2013-03-22 23:00:00,
2013-03-22 19:06:00,44.0,17.4,30.03,SSW,197,2.0,3.0,34,0.00,,,0.00,Wunderground v.1.15,2013-03-22 23:06:00,
2013-03-22 19:11:00,44.1,18.2,30.03,SSW,197,1.0,2.0,35,0.00,,,0.00,Wunderground v.1.15,2013-03-22 23:11:00,
2013-03-22 19:17:00,44.1,18.2,30.03,SSW,197,0.0,2.0,35,0.00,,,0.00,Wunderground v.1.15,2013-03-22 23:17:00,
2013-03-22 19:22:00,43.9,18.0,30.03,West,263,1.0,2.0,35,0.00,,,0.00,Wunderground v.1.15,2013-03-22 23:22:00,
2013-03-22 19:28:00,43.3,18.7,30.04,WNW,297,2.0,4.0,37,0.00,,,0.00,Wunderground v.1.15,2013-03-22 23:28:00,
2013-03-22 19:33:00,43.0,17.8,30.04,WNW,294,4.0,8.0,36,0.00,,,0.00,Wunderground v.1.15,2013-03-22 23:33:00,
2013-03-22 19:39:00,42.7,18.8,30.04,West,266,5.0,8.0,38,0.00,,,0.00,Wunderground v.1.15,2013-03-22 23:39:00,
2013-03-22 19:44:00,42.5,18.0,30.04,West,281,4.0,7.0,37,0.00,,,0.00,Wunderground v.1.15,2013-03-22 23:44:00,
2013-03-22 19:50:00,42.4,19.2,30.04,WNW,288,3.0,4.0,39,0.00,,,0.00,Wunderground v.1.15,2013-03-22 23:50:00,
2013-03-22 19:57:00,42.2,19.6,30.05,WNW,303,3.0,6.0,40,0.00,,,0.00,Wunderground v.1.15,2013-03-22 23:57:00,
2013-03-22 20:02:00,42.0,19.4,30.04,NW,305,4.0,7.0,40,0.00,,,0.00,Wunderground v.1.15,2013-03-23 00:02:00,
2013-03-22 20:07:00,41.7,19.7,30.04,NW,312,5.0,7.0,41,0.00,,,0.00,Wunderground v.1.15,2013-03-23 00:07:00,
2013-03-22 20:13:00,41.6,19.6,30.04,NW,304,5.0,6.0,41,0.00,,,0.00,Wunderground v.1.15,2013-03-23 00:13:00,
2013-03-22 20:19:00,41.5,19.5,30.04,WNW,301,4.0,6.0,41,0.00,,,0.00,Wunderground v.1.15,2013-03-23 00:19:00,
2013-03-22 20:25:00,41.3,18.8,30.04,WNW,301,3.0,4.0,40,0.00,,,0.00,Wunderground v.1.15,2013-03-23 00:25:00,
2013-03-22 20:30:00,41.2,19.8,30.04,NW,305,3.0,3.0,42,0.00,,,0.00,Wunderground v.1.15,2013-03-23 00:30:00,
2013-03-22 20:37:00,41.0,19.1,30.05,WNW,295,3.0,4.0,41,0.00,,,0.00,Wunderground v.1.15,2013-03-23 00:37:00,
2013-03-22 20:43:00,40.8,18.9,30.04,WNW,299,3.0,4.0,41,0.00,,,0.00,Wunderground v.1.15,2013-03-23 00:43:00,
2013-03-22 20:49:00,40.6,18.7,30.04,WNW,290,2.0,4.0,41,0.00,,,0.00,Wunderground v.1.15,2013-03-23 00:49:00,
2013-03-22 20:54:00,40.6,18.1,30.04,WNW,284,2.0,3.0,40,0.00,,,0.00,Wunderground v.1.15,2013-03-23 00:54:00,
2013-03-22 21:00:00,40.5,19.2,30.04,WSW,247,1.0,2.0,42,0.00,,,0.00,Wunderground v.1.15,2013-03-23 01:00:00,
2013-03-22 21:06:00,40.4,18.5,30.05,WSW,238,1.0,2.0,41,0.00,,,0.00,Wunderground v.1.15,2013-03-23 01:06:00,
2013-03-22 21:11:00,40.4,18.5,30.05,WSW,238,1.0,2.0,41,0.00,,,0.00,Wunderground v.1.15,2013-03-23 01:11:00,
2013-03-22 21:16:00,40.4,18.5,30.05,WSW,238,1.0,2.0,41,0.00,,,0.00,Wunderground v.1.15,2013-03-23 01:16:00,
2013-03-22 21:22:00,40.4,18.5,30.05,WSW,238,1.0,2.0,41,0.00,,,0.00,Wunderground v.1.15,2013-03-23 01:22:00,
2013-03-22 21:27:00,40.4,18.5,30.05,WSW,238,1.0,2.0,41,0.00,,,0.00,Wunderground v.1.15,2013-03-23 01:27:00,
2013-03-22 21:33:00,40.3,19.0,30.05,WSW,238,0.0,2.0,42,0.00,,,0.00,Wunderground v.1.15,2013-03-23 01:33:00,
2013-03-22 21:39:00,40.2,18.9,30.05,SW,224,0.0,2.0,42,0.00,,,0.00,Wunderground v.1.15,2013-03-23 01:39:00,
2013-03-22 21:45:00,40.1,19.4,30.05,SW,232,2.0,3.0,43,0.00,,,0.00,Wunderground v.1.15,2013-03-23 01:45:00,
2013-03-22 21:52:00,39.9,20.3,30.05,SW,231,2.0,3.0,45,0.00,,,0.00,Wunderground v.1.15,2013-03-23 01:52:00,
2013-03-22 21:58:00,39.8,20.7,30.05,SW,220,2.0,4.0,46,0.00,,,0.00,Wunderground v.1.15,2013-03-23 01:58:00,
2013-03-22 22:03:00,39.6,21.0,30.06,SW,217,2.0,3.0,47,0.00,,,0.00,Wunderground v.1.15,2013-03-23 02:03:00,
2013-03-22 22:08:00,39.5,20.9,30.06,WSW,241,2.0,3.0,47,0.00,,,0.00,Wunderground v.1.15,2013-03-23 02:08:00,
2013-03-22 22:13:00,39.4,21.8,30.06,WSW,256,2.0,2.0,49,0.00,,,0.00,Wunderground v.1.15,2013-03-23 02:13:00,
2013-03-22 22:19:00,39.0,21.4,30.06,West,280,2.0,2.0,49,0.00,,,0.00,Wunderground v.1.15,2013-03-23 02:19:00,
2013-03-22 22:24:00,39.0,21.4,30.06,West,280,2.0,3.0,49,0.00,,,0.00,Wunderground v.1.15,2013-03-23 02:24:00,
2013-03-22 22:30:00,38.9,21.3,30.06,West,275,2.0,2.0,49,0.00,,,0.00,Wunderground v.1.15,2013-03-23 02:30:00,
2013-03-22 22:35:00,38.8,21.3,30.06,West,275,2.0,2.0,49,0.00,,,0.00,Wunderground v.1.15,2013-03-23 02:35:00,
2013-03-22 22:41:00,38.8,21.7,30.05,West,275,1.0,2.0,50,0.00,,,0.00,Wunderground v.1.15,2013-03-23 02:41:00,
2013-03-22 22:47:00,38.7,21.6,30.05,West,275,0.0,2.0,50,0.00,,,0.00,Wunderground v.1.15,2013-03-23 02:47:00,
2013-03-22 22:53:00,38.7,21.2,30.06,West,275,0.0,2.0,49,0.00,,,0.00,Wunderground v.1.15,2013-03-23 02:53:00,
2013-03-22 22:59:00,38.7,20.7,30.06,WNW,287,1.0,3.0,48,0.00,,,0.00,Wunderground v.1.15,2013-03-23 02:59:00,
2013-03-22 23:04:00,38.5,21.9,30.06,WNW,287,2.0,3.0,51,0.00,,,0.00,Wunderground v.1.15,2013-03-23 03:04:00,
2013-03-22 23:10:00,38.5,21.5,30.06,WNW,287,2.0,2.0,50,0.00,,,0.00,Wunderground v.1.15,2013-03-23 03:10:00,
2013-03-22 23:15:00,38.4,22.3,30.06,WNW,287,2.0,2.0,52,0.00,,,0.00,Wunderground v.1.15,2013-03-23 03:15:00,
2013-03-22 23:20:00,38.4,21.8,30.06,WNW,287,2.0,2.0,51,0.00,,,0.00,Wunderground v.1.15,2013-03-23 03:20:00,
2013-03-22 23:26:00,38.3,21.7,30.06,WNW,287,2.0,2.0,51,0.00,,,0.00,Wunderground v.1.15,2013-03-23 03:26:00,
2013-03-22 23:32:00,38.3,21.7,30.06,WNW,287,0.0,2.0,51,0.00,,,0.00,Wunderground v.1.15,2013-03-23 03:32:00,
2013-03-22 23:37:00,38.2,22.1,30.07,West,274,1.0,2.0,52,0.00,,,0.00,Wunderground v.1.15,2013-03-23 03:37:00,
2013-03-22 23:42:00,38.2,22.6,30.06,SW,235,1.0,2.0,53,0.00,,,0.00,Wunderground v.1.15,2013-03-23 03:42:00,
2013-03-22 23:48:00,38.1,22.5,30.07,WSW,251,1.0,2.0,53,0.00,,,0.00,Wunderground v.1.15,2013-03-23 03:48:00,
2013-03-22 23:53:00,38.2,22.1,30.06,WNW,287,1.0,2.0,52,0.00,,,0.00,Wunderground v.1.15,2013-03-23 03:53:00,
2013-03-22 23:59:00,38.1,22.5,30.07,WNW,296,2.0,3.0,53,0.00,,,0.00,Wunderground v.1.15,2013-03-23 03:59:00,